createdAt,value
2022-10-04T00:01:10.053Z,100816.91
2022-10-04T00:06:17.729Z,100813.41
2022-10-04T00:11:32.124Z,100805.88
2022-10-04T00:16:38.339Z,100808.59
2022-10-04T00:21:56.248Z,100817.19
2022-10-04T00:27:20.694Z,100810.59
2022-10-04T00:32:27.528Z,100810.44
2022-10-04T00:37:59.108Z,100812.91
2022-10-04T00:43:21.328Z,100802.97
2022-10-04T00:48:42.128Z,100808.03
2022-10-04T00:53:58.782Z,100806.03
2022-10-04T00:59:05.573Z,100810.91
2022-10-04T01:04:21.558Z,100807.19
2022-10-04T01:09:23.848Z,100805.69
2022-10-04T01:14:42.267Z,100796.06
2022-10-04T01:19:51.222Z,100786.84
2022-10-04T01:24:52.694Z,100787.03
2022-10-04T01:29:54.246Z,100788.41
2022-10-04T01:34:56.246Z,100789.69
2022-10-04T01:39:58.372Z,100786.00
2022-10-04T01:45:07.988Z,100787.97
2022-10-04T01:50:15.984Z,100794.75
2022-10-04T01:55:21.304Z,100798.75
2022-10-04T02:00:24.459Z,100793.69
2022-10-04T02:05:33.522Z,100795.38
2022-10-04T02:10:39.813Z,100785.25
2022-10-04T02:15:46.021Z,100777.56
2022-10-04T02:20:49.544Z,100775.34
2022-10-04T02:25:51.978Z,100775.22
2022-10-04T02:31:12.147Z,100776.22
2022-10-04T02:36:15.816Z,100774.53
2022-10-04T02:41:27.857Z,100774.53
2022-10-04T02:46:35.512Z,100769.00
2022-10-04T02:51:38.677Z,100771.84
2022-10-04T02:56:40.453Z,100766.19
2022-10-04T03:01:51.177Z,100773.00
2022-10-04T03:06:53.287Z,100757.56
2022-10-04T03:11:56.045Z,100760.56
2022-10-04T03:17:01.222Z,100762.25
2022-10-04T03:22:07.653Z,100753.72
2022-10-04T03:27:09.918Z,100766.91
2022-10-04T03:32:14.673Z,100756.00
2022-10-04T03:37:17.286Z,100763.72
2022-10-04T03:42:39.022Z,100763.72
2022-10-04T03:47:43.937Z,100756.66
2022-10-04T03:53:08.561Z,100760.66
2022-10-04T03:58:14.486Z,100757.25
2022-10-04T04:03:19.119Z,100761.16
2022-10-04T04:08:28.687Z,100772.88
2022-10-04T04:13:58.615Z,100764.06
2022-10-04T04:19:02.819Z,100767.66
2022-10-04T04:24:08.651Z,100774.22
2022-10-04T04:29:24.882Z,100766.81
2022-10-04T04:34:35.541Z,100781.47
2022-10-04T04:39:37.403Z,100780.81
2022-10-04T04:44:47.398Z,100780.44
2022-10-04T04:49:49.909Z,100772.81
2022-10-04T04:54:53.044Z,100774.22
2022-10-04T04:59:58.551Z,100773.72
2022-10-04T05:05:20.172Z,100782.78
2022-10-04T05:10:33.131Z,100783.13
2022-10-04T05:15:37.240Z,100787.59
2022-10-04T05:20:38.971Z,100787.75
2022-10-04T05:25:40.635Z,100795.72
2022-10-04T05:30:48.691Z,100798.94
2022-10-04T05:36:24.384Z,100795.34
2022-10-04T05:41:33.715Z,100804.56
2022-10-04T05:46:35.437Z,100809.00
2022-10-04T05:51:49.646Z,100811.31
2022-10-04T05:56:51.041Z,100826.16
2022-10-04T06:02:25.232Z,100830.84
2022-10-04T06:07:38.643Z,100831.84
2022-10-04T06:12:50.743Z,100833.44
2022-10-04T06:18:09.407Z,100829.06
2022-10-04T06:23:14.091Z,100829.06
2022-10-04T06:28:15.566Z,100839.66
2022-10-04T06:34:05.486Z,100837.03
2022-10-04T06:39:20.092Z,100843.09
2022-10-04T06:44:51.096Z,100844.47
2022-10-04T06:50:05.738Z,100854.19
2022-10-04T06:55:15.591Z,100859.00
2022-10-04T07:00:24.469Z,100863.34
2022-10-04T07:05:32.331Z,100857.66
2022-10-04T07:10:54.044Z,100866.75
2022-10-04T07:15:59.347Z,100867.47
2022-10-04T07:21:11.718Z,100870.88
2022-10-04T07:26:43.793Z,100871.63
2022-10-04T07:31:46.906Z,100870.31
2022-10-04T07:36:50.333Z,100877.63
2022-10-04T07:41:57.660Z,100876.06
2022-10-04T07:47:20.250Z,100880.84
2022-10-04T07:53:13.033Z,100888.13
2022-10-04T07:58:54.337Z,100881.91
2022-10-04T08:04:14.131Z,100885.81
2022-10-04T08:09:46.865Z,100883.91
2022-10-04T08:15:14.418Z,100895.41
2022-10-04T08:20:22.024Z,100894.97
2022-10-04T08:25:27.768Z,100903.06
2022-10-04T08:30:38.542Z,100907.94
2022-10-04T08:35:46.151Z,100909.81
2022-10-04T08:41:25.868Z,100908.66
2022-10-04T08:46:46.908Z,100911.34
2022-10-04T08:52:12.730Z,100913.41
2022-10-04T08:57:54.284Z,100919.66
2022-10-04T09:03:11.587Z,100922.66
2022-10-04T09:08:31.114Z,100922.19
2022-10-04T09:13:54.633Z,100914.59
2022-10-04T09:19:34.087Z,100921.53
2022-10-04T09:25:09.077Z,100918.50
2022-10-04T09:30:21.330Z,100913.97
2022-10-04T09:35:56.641Z,100919.03
2022-10-04T09:41:03.695Z,100916.16
2022-10-04T09:46:12.033Z,100913.66
2022-10-04T09:51:30.574Z,100910.94
2022-10-04T09:56:47.113Z,100917.53
2022-10-04T10:02:00.601Z,100919.88
2022-10-04T10:07:23.738Z,100922.94
2022-10-04T10:12:54.574Z,100920.22
2022-10-04T10:18:21.830Z,100913.19
2022-10-04T10:23:30.373Z,100906.44
2022-10-04T10:29:02.627Z,100917.25
2022-10-04T10:34:52.351Z,100931.75
2022-10-04T10:40:27.996Z,100932.59
2022-10-04T10:45:35.627Z,100931.41
2022-10-04T10:51:03.293Z,100920.78
2022-10-04T10:56:08.571Z,100923.50
2022-10-04T11:01:19.147Z,100920.28
2022-10-04T11:06:38.865Z,100917.59
2022-10-04T11:12:06.091Z,100908.13
2022-10-04T11:17:25.608Z,100906.41
2022-10-04T11:23:03.739Z,100895.94
2022-10-04T11:28:18.451Z,100900.69
2022-10-04T11:33:39.031Z,100900.88
2022-10-04T11:39:03.527Z,100896.97
2022-10-04T11:44:47.476Z,100894.59
2022-10-04T11:49:58.974Z,100893.88
2022-10-04T11:55:23.846Z,100893.84
2022-10-04T12:00:29.352Z,100889.47
2022-10-04T12:05:40.721Z,100873.63
2022-10-04T12:10:43.927Z,100883.06
2022-10-04T12:16:13.030Z,100879.88
2022-10-04T12:21:28.902Z,100872.47
2022-10-04T12:26:52.677Z,100867.91
2022-10-04T12:32:00.362Z,100855.41
2022-10-04T12:37:17.048Z,100854.75
2022-10-04T12:42:35.068Z,100848.66
2022-10-04T12:47:51.898Z,100849.53
2022-10-04T12:52:57.028Z,100851.22
2022-10-04T12:58:09.980Z,100847.97
2022-10-04T13:03:23.965Z,100854.59
2022-10-04T13:08:50.191Z,100866.22
2022-10-04T13:13:59.597Z,100854.06
2022-10-04T13:19:33.592Z,100849.69
2022-10-04T13:25:16.294Z,100853.75
2022-10-04T13:30:27.674Z,100849.84
2022-10-04T13:35:37.057Z,100838.88
2022-10-04T13:40:41.321Z,100843.91
2022-10-04T13:45:52.982Z,100838.03
2022-10-04T13:51:32.362Z,100847.47
2022-10-04T13:57:11.607Z,100842.75
2022-10-04T14:02:43.873Z,100834.97
2022-10-04T14:08:23.063Z,100832.59
2022-10-04T14:13:41.098Z,100845.59
2022-10-04T14:19:14.154Z,100828.38
2022-10-04T14:24:21.671Z,100826.66
2022-10-04T14:29:32.497Z,100828.72
2022-10-04T14:34:39.735Z,100822.59
2022-10-04T14:39:59.878Z,100823.44
2022-10-04T14:45:37.822Z,100812.34
2022-10-04T14:50:51.214Z,100800.69
2022-10-04T14:56:06.317Z,100791.91
2022-10-04T15:01:13.582Z,100802.50
2022-10-04T15:06:26.910Z,100806.94
2022-10-04T15:11:40.018Z,100801.00
2022-10-04T15:16:58.210Z,100794.97
2022-10-04T15:22:22.339Z,100788.88
2022-10-04T15:27:40.584Z,100774.03
2022-10-04T15:32:44.863Z,100762.38
2022-10-04T15:38:19.229Z,100767.31
2022-10-04T15:43:27.570Z,100749.09
2022-10-04T15:48:50.624Z,100748.41
2022-10-04T15:53:55.242Z,100746.72
2022-10-04T15:59:08.913Z,100746.25
2022-10-04T16:04:46.034Z,100738.34
2022-10-04T16:09:55.048Z,100715.59
2022-10-04T16:15:19.794Z,100717.81
2022-10-04T16:20:36.457Z,100722.19
2022-10-04T16:25:39.042Z,100735.00
2022-10-04T16:31:08.327Z,100737.03
2022-10-04T16:36:13.958Z,100720.03
2022-10-04T16:41:32.021Z,100726.78
2022-10-04T16:46:45.023Z,100747.53
2022-10-04T16:52:14.761Z,100746.19
2022-10-04T16:57:22.461Z,100747.03
2022-10-04T17:02:51.662Z,100750.59
2022-10-04T17:08:22.351Z,100749.78
2022-10-04T17:13:52.939Z,100741.66
2022-10-04T17:19:30.379Z,100739.09
2022-10-04T17:24:59.462Z,100741.16
2022-10-04T17:30:21.948Z,100738.13
2022-10-04T17:35:48.081Z,100745.22
2022-10-04T17:41:08.855Z,100739.84
2022-10-04T17:46:22.119Z,100748.38
2022-10-04T17:51:42.319Z,100753.63
2022-10-04T17:56:48.864Z,100746.19
2022-10-04T18:01:55.555Z,100743.34
2022-10-04T18:07:01.970Z,100754.63
2022-10-04T18:12:36.937Z,100765.69
2022-10-04T18:17:42.105Z,100784.66
2022-10-04T18:22:48.700Z,100789.59
2022-10-04T18:28:10.625Z,100792.66
2022-10-04T18:33:26.473Z,100777.47
2022-10-04T18:38:29.253Z,100779.00
2022-10-04T18:43:33.788Z,100778.34
2022-10-04T18:48:38.161Z,100784.72
2022-10-04T18:53:44.718Z,100781.59
2022-10-04T18:59:31.695Z,100772.56
2022-10-04T19:04:49.730Z,100778.78
2022-10-04T19:09:58.090Z,100776.63
2022-10-04T19:15:08.351Z,100775.94
2022-10-04T19:20:23.881Z,100786.50
2022-10-04T19:25:35.569Z,100801.13
2022-10-04T19:31:00.611Z,100780.56
2022-10-04T19:36:16.898Z,100803.41
2022-10-04T19:41:48.943Z,100799.34
2022-10-04T19:46:56.062Z,100807.34
2022-10-04T19:52:12.643Z,100800.72
2022-10-04T19:57:15.110Z,100800.66
2022-10-04T20:02:16.749Z,100806.69
2022-10-04T20:07:23.233Z,100817.06
2022-10-04T20:12:36.487Z,100821.66
2022-10-04T20:17:40.165Z,100826.72
2022-10-04T20:22:51.554Z,100836.09
2022-10-04T20:27:53.015Z,100835.44
2022-10-04T20:32:55.785Z,100843.94
2022-10-04T20:38:19.983Z,100848.19
2022-10-04T20:43:19.205Z,100845.50
2022-10-04T20:48:22.771Z,100838.66
2022-10-04T20:53:25.886Z,100847.34
2022-10-04T20:58:32.731Z,100839.47
2022-10-04T21:03:36.615Z,100845.75
2022-10-04T21:08:38.390Z,100852.69
2022-10-04T21:13:56.598Z,100860.69
2022-10-04T21:19:33.505Z,100860.50
2022-10-04T21:24:39.749Z,100859.56
2022-10-04T21:29:41.217Z,100861.22
2022-10-04T21:34:53.127Z,100863.69
2022-10-04T21:39:56.074Z,100848.19
2022-10-04T21:44:57.691Z,100838.75
2022-10-04T21:49:59.219Z,100851.28
2022-10-04T21:55:00.760Z,100846.03
2022-10-04T22:00:02.426Z,100844.03
2022-10-04T22:05:13.805Z,100830.97
2022-10-04T22:10:15.400Z,100824.94
2022-10-04T22:15:16.969Z,100825.44
2022-10-04T22:20:18.628Z,100829.72
2022-10-04T22:25:22.024Z,100843.06
2022-10-04T22:30:24.965Z,100841.28
2022-10-04T22:35:29.287Z,100819.03
2022-10-04T22:40:30.784Z,100811.38
2022-10-04T22:45:34.925Z,100787.19
2022-10-04T22:50:37.340Z,100782.63
2022-10-04T22:55:40.919Z,100758.81
2022-10-04T23:00:43.451Z,100746.91
2022-10-04T23:05:45.311Z,100740.78
2022-10-04T23:10:47.035Z,100737.22
2022-10-04T23:15:48.682Z,100744.09
2022-10-04T23:20:55.819Z,100739.97
2022-10-04T23:25:57.314Z,100732.97
2022-10-04T23:31:04.399Z,100729.44
2022-10-04T23:36:11.057Z,100714.97
2022-10-04T23:41:12.574Z,100708.94
2022-10-04T23:46:18.760Z,100708.03
2022-10-04T23:51:20.632Z,100700.19
2022-10-04T23:56:25.047Z,100695.72
